LGL9737 ELLX-EDDM
Flight info
| Callsign | LGL9737 |
|---|---|
| Flight time | N/A |
| Altitude | 23000 |
| Route | EXCOS Q763 MAPIG Q760 TOMPI Z729 LBU L173 RIXED Y161 RIDAR Z98 WLD T104 ROKIL ROKIL1A |
| Aircraft | DH8D/M-SDFGIRY/H |
Departure
| Time | 2026-04-30 14:58 |
|---|---|
| Airport | Luxembourg-Findel International Airport (ELLX) |
Arrival
| Time | N/A |
|---|---|
| Airport | Munich Airport (EDDM) |
| Time | Latitude | Longitude | Altitude | Speed | Heading |
|---|---|---|---|---|---|
| 2026-04-30 14:26 | 49.63180 | 6.21359 | 1242 ft | 0 kts | 60° |
| 2026-04-30 14:48 | 49.63175 | 6.21345 | 1242 ft | 2 kts | 60° |
| 2026-04-30 14:48 | 49.63167 | 6.21324 | 1242 ft | 2 kts | 64° |
| 2026-04-30 14:49 | 49.63167 | 6.21302 | 1242 ft | 2 kts | 115° |
| 2026-04-30 14:49 | 49.63174 | 6.21288 | 1242 ft | 0 kts | 144° |
| 2026-04-30 14:49 | 49.63179 | 6.21283 | 1242 ft | 0 kts | 150° |
| 2026-04-30 14:52 | 49.63173 | 6.21288 | 1242 ft | 3 kts | 150° |
| 2026-04-30 14:52 | 49.63129 | 6.21327 | 1242 ft | 11 kts | 149° |
| 2026-04-30 14:53 | 49.63009 | 6.21407 | 1242 ft | 9 kts | 210° |
| 2026-04-30 14:53 | 49.62966 | 6.21283 | 1242 ft | 18 kts | 244° |
| 2026-04-30 14:54 | 49.62845 | 6.20893 | 1242 ft | 21 kts | 244° |
| 2026-04-30 14:54 | 49.62657 | 6.20567 | 1242 ft | 19 kts | 225° |
| 2026-04-30 14:55 | 49.62481 | 6.20236 | 1242 ft | 20 kts | 238° |
| 2026-04-30 14:55 | 49.62412 | 6.20051 | 1242 ft | 19 kts | 239° |
| 2026-04-30 14:55 | 49.62288 | 6.19717 | 1242 ft | 16 kts | 240° |
| 2026-04-30 14:56 | 49.62209 | 6.19551 | 1242 ft | 4 kts | 193° |
| 2026-04-30 14:56 | 49.62169 | 6.19566 | 1242 ft | 0 kts | 148° |
| 2026-04-30 14:57 | 49.62133 | 6.19600 | 1242 ft | 7 kts | 149° |
| 2026-04-30 14:58 | 49.62185 | 6.19919 | 1243 ft | 65 kts | 59° |
| 2026-04-30 14:58 | 49.62560 | 6.20932 | 1247 ft | 141 kts | 63° |
| 2026-04-30 14:58 | 49.63626 | 6.23859 | 2430 ft | 167 kts | 63° |
| 2026-04-30 14:59 | 49.64497 | 6.27574 | 3338 ft | 203 kts | 101° |
| 2026-04-30 15:00 | 49.62434 | 6.33324 | 5343 ft | 213 kts | 123° |
| 2026-04-30 15:00 | 49.60952 | 6.37209 | 6789 ft | 214 kts | 125° |
| 2026-04-30 15:01 | 49.59358 | 6.41399 | 7739 ft | 232 kts | 125° |
| 2026-04-30 15:01 | 49.58537 | 6.43566 | 7921 ft | 238 kts | 125° |
| 2026-04-30 15:01 | 49.56978 | 6.48106 | 8435 ft | 243 kts | 115° |
| 2026-04-30 15:02 | 49.56432 | 6.50600 | 8936 ft | 253 kts | 113° |
| 2026-04-30 15:02 | 49.55885 | 6.53149 | 9668 ft | 253 kts | 113° |
| 2026-04-30 15:03 | 49.54266 | 6.61157 | 11320 ft | 271 kts | 107° |
| 2026-04-30 15:03 | 49.53178 | 6.66718 | 12505 ft | 276 kts | 109° |
| 2026-04-30 15:04 | 49.52055 | 6.72459 | 13573 ft | 283 kts | 109° |
| 2026-04-30 15:04 | 49.50324 | 6.81292 | 15053 ft | 293 kts | 110° |
| 2026-04-30 15:05 | 49.48537 | 6.90374 | 16420 ft | 301 kts | 110° |
| 2026-04-30 15:06 | 49.47314 | 6.96571 | 17316 ft | 304 kts | 110° |
| 2026-04-30 15:06 | 49.46080 | 7.02803 | 18185 ft | 307 kts | 110° |
| 2026-04-30 15:07 | 49.44831 | 7.09092 | 19028 ft | 310 kts | 110° |
| 2026-04-30 15:07 | 49.43564 | 7.15452 | 19840 ft | 312 kts | 110° |
| 2026-04-30 15:08 | 49.42288 | 7.21837 | 20610 ft | 313 kts | 110° |
| 2026-04-30 15:08 | 49.40359 | 7.31447 | 21655 ft | 315 kts | 110° |
| 2026-04-30 15:09 | 49.39062 | 7.37879 | 22281 ft | 316 kts | 110° |
| 2026-04-30 15:09 | 49.37761 | 7.44313 | 22854 ft | 317 kts | 110° |
| 2026-04-30 15:10 | 49.36438 | 7.50824 | 23241 ft | 325 kts | 110° |
| 2026-04-30 15:11 | 49.33554 | 7.64908 | 23293 ft | 366 kts | 110° |
| 2026-04-30 15:11 | 49.31991 | 7.72519 | 23290 ft | 381 kts | 110° |
| 2026-04-30 15:12 | 49.29549 | 7.84363 | 23286 ft | 395 kts | 110° |
| 2026-04-30 15:13 | 49.27889 | 7.92390 | 23284 ft | 397 kts | 110° |
| 2026-04-30 15:14 | 49.24529 | 8.08525 | 23295 ft | 398 kts | 110° |
| 2026-04-30 15:14 | 49.21991 | 8.20620 | 23300 ft | 399 kts | 110° |
| 2026-04-30 15:16 | 49.17733 | 8.40740 | 23315 ft | 399 kts | 110° |
| 2026-04-30 15:17 | 49.14297 | 8.56833 | 23317 ft | 399 kts | 110° |
| 2026-04-30 15:18 | 49.10081 | 8.76409 | 23316 ft | 390 kts | 111° |
| 2026-04-30 15:19 | 49.07516 | 8.88221 | 23306 ft | 392 kts | 111° |